createdAt,value
2023-05-01T00:01:50.595Z,62.70
2023-05-01T00:04:17.621Z,62.60
2023-05-01T00:06:44.867Z,62.60
2023-05-01T00:09:11.885Z,62.50
2023-05-01T00:11:38.630Z,62.50
2023-05-01T00:14:05.429Z,62.50
2023-05-01T00:16:32.276Z,62.60
2023-05-01T00:18:59.067Z,62.60
2023-05-01T00:21:25.801Z,62.70
2023-05-01T00:23:52.625Z,62.70
2023-05-01T00:26:19.328Z,62.60
2023-05-01T00:28:48.442Z,62.70
2023-05-01T00:31:15.471Z,62.60
2023-05-01T00:33:42.276Z,62.60
2023-05-01T00:36:09.912Z,62.50
2023-05-01T00:38:37.113Z,62.50
2023-05-01T00:41:03.860Z,62.60
2023-05-01T00:43:30.851Z,62.70
2023-05-01T00:45:57.640Z,62.70
2023-05-01T00:48:25.973Z,62.80
2023-05-01T00:50:52.993Z,62.80
2023-05-01T00:53:20.247Z,62.80
2023-05-01T00:55:47.346Z,63.70
2023-05-01T00:58:16.847Z,62.80
2023-05-01T01:00:43.959Z,62.80
2023-05-01T01:03:11.581Z,62.80
2023-05-01T01:05:42.409Z,62.80
2023-05-01T01:08:28.356Z,62.90
2023-05-01T01:11:01.652Z,62.90
2023-05-01T01:13:33.625Z,63.80
2023-05-01T01:16:15.914Z,63.00
2023-05-01T01:18:56.412Z,62.90
2023-05-01T01:21:28.306Z,63.10
2023-05-01T01:24:12.717Z,62.90
2023-05-01T01:27:02.389Z,62.90
2023-05-01T01:29:48.059Z,63.00
2023-05-01T01:32:51.881Z,62.90
2023-05-01T01:35:20.407Z,63.00
2023-05-01T01:37:50.190Z,63.00
2023-05-01T01:40:18.726Z,63.00
2023-05-01T01:42:53.185Z,63.10
2023-05-01T01:45:23.681Z,63.20
2023-05-01T01:47:52.683Z,63.20
2023-05-01T01:50:20.306Z,63.10
2023-05-01T01:52:48.388Z,63.10
2023-05-01T01:55:16.055Z,63.20
2023-05-01T01:57:44.812Z,63.10
2023-05-01T02:00:13.019Z,63.00
2023-05-01T02:02:48.795Z,63.00
2023-05-01T02:05:17.403Z,63.20
2023-05-01T02:07:46.853Z,63.10
2023-05-01T02:10:14.041Z,63.10
2023-05-01T02:12:42.476Z,63.30
2023-05-01T02:15:10.730Z,63.50
2023-05-01T02:17:39.784Z,63.50
2023-05-01T02:20:07.812Z,63.50
2023-05-01T02:22:34.907Z,63.50
2023-05-01T02:25:03.371Z,63.50
2023-05-01T02:27:32.490Z,63.50
2023-05-01T02:29:59.417Z,63.40
2023-05-01T02:32:26.539Z,63.30
2023-05-01T02:34:53.806Z,63.20
2023-05-01T02:37:20.878Z,63.20
2023-05-01T02:39:48.009Z,63.20
2023-05-01T02:42:16.475Z,63.20
2023-05-01T02:44:55.217Z,63.40
2023-05-01T02:47:23.190Z,63.60
2023-05-01T02:49:51.447Z,63.60
2023-05-01T02:52:19.281Z,63.80
2023-05-01T02:54:49.482Z,63.80
2023-05-01T02:57:20.340Z,63.80
2023-05-01T02:59:47.534Z,63.90
2023-05-01T03:02:15.907Z,63.90
2023-05-01T03:04:43.760Z,63.80
2023-05-01T03:07:10.512Z,63.70
2023-05-01T03:09:37.464Z,63.70
2023-05-01T03:12:04.493Z,63.70
2023-05-01T03:14:31.584Z,63.70
2023-05-01T03:16:58.517Z,63.70
2023-05-01T03:19:25.403Z,63.70
2023-05-01T03:21:52.092Z,63.60
2023-05-01T03:24:19.436Z,63.50
2023-05-01T03:26:46.678Z,63.50
2023-05-01T03:29:13.539Z,63.50
2023-05-01T03:31:40.778Z,63.50
2023-05-01T03:34:09.840Z,63.50
2023-05-01T03:36:36.849Z,63.50
2023-05-01T03:39:04.838Z,63.50
2023-05-01T03:41:54.862Z,63.50
2023-05-01T03:44:25.534Z,63.50
2023-05-01T03:46:52.275Z,63.40
2023-05-01T03:49:26.176Z,63.60
2023-05-01T03:51:53.046Z,63.70
2023-05-01T03:54:19.824Z,63.80
2023-05-01T03:57:05.491Z,63.90
2023-05-01T03:59:32.420Z,64.00
2023-05-01T04:01:59.202Z,64.00
2023-05-01T04:04:29.716Z,64.80
2023-05-01T04:06:58.031Z,63.90
2023-05-01T04:09:25.138Z,63.70
2023-05-01T04:11:52.045Z,63.70
2023-05-01T04:14:18.758Z,63.60
2023-05-01T04:16:45.907Z,63.60
2023-05-01T04:19:12.905Z,64.50
2023-05-01T04:21:42.663Z,63.60
2023-05-01T04:24:09.428Z,63.60
2023-05-01T04:26:36.390Z,63.60
2023-05-01T04:29:03.346Z,63.70
2023-05-01T04:31:30.297Z,63.80
2023-05-01T04:33:57.235Z,63.80
2023-05-01T04:36:24.239Z,63.80
2023-05-01T04:38:53.677Z,63.80
2023-05-01T04:41:21.883Z,63.90
2023-05-01T04:43:49.053Z,64.00
2023-05-01T04:46:19.011Z,64.10
2023-05-01T04:48:46.041Z,64.00
2023-05-01T04:51:12.958Z,64.00
2023-05-01T04:53:40.103Z,64.10
2023-05-01T04:56:16.795Z,64.20
2023-05-01T04:58:45.431Z,64.30
2023-05-01T05:01:16.339Z,64.30
2023-05-01T05:03:43.378Z,64.30
2023-05-01T05:06:11.812Z,64.40
2023-05-01T05:08:38.635Z,64.40
2023-05-01T05:11:09.838Z,64.50
2023-05-01T05:13:59.604Z,64.60
2023-05-01T05:16:26.489Z,64.70
2023-05-01T05:18:54.993Z,64.60
2023-05-01T05:21:22.612Z,64.50
2023-05-01T05:23:53.213Z,64.30
2023-05-01T05:26:20.109Z,64.40
2023-05-01T05:28:48.614Z,64.30
2023-05-01T05:31:15.722Z,64.30
2023-05-01T05:33:42.755Z,64.20
2023-05-01T05:36:09.742Z,64.20
2023-05-01T05:38:41.385Z,64.20
2023-05-01T05:41:13.830Z,64.10
2023-05-01T05:43:40.618Z,64.20
2023-05-01T05:46:08.725Z,64.20
2023-05-01T05:48:37.099Z,64.30
2023-05-01T05:51:04.374Z,64.40
2023-05-01T05:53:31.458Z,64.50
2023-05-01T05:55:58.491Z,64.50
2023-05-01T05:58:25.489Z,64.70
2023-05-01T06:00:55.973Z,64.90
2023-05-01T06:03:23.272Z,64.90
2023-05-01T06:05:52.319Z,64.90
2023-05-01T06:08:19.050Z,65.20
2023-05-01T06:10:46.245Z,65.20
2023-05-01T06:13:14.869Z,65.50
2023-05-01T06:15:48.189Z,65.80
2023-05-01T06:18:15.380Z,66.10
2023-05-01T06:20:42.781Z,66.20
2023-05-01T06:23:09.906Z,66.30
2023-05-01T06:25:44.595Z,66.30
2023-05-01T06:28:11.473Z,66.40
2023-05-01T06:30:39.624Z,67.30
2023-05-01T06:33:06.493Z,66.50
2023-05-01T06:35:34.298Z,66.60
2023-05-01T06:38:01.077Z,66.80
2023-05-01T06:40:27.921Z,66.90
2023-05-01T06:42:55.236Z,66.90
2023-05-01T06:45:26.465Z,67.00
2023-05-01T06:47:54.082Z,67.10
2023-05-01T06:50:20.939Z,67.30
2023-05-01T06:52:47.792Z,67.50
2023-05-01T06:55:14.964Z,67.70
2023-05-01T06:57:42.825Z,68.00
2023-05-01T07:00:10.835Z,67.90
2023-05-01T07:02:38.151Z,67.70
2023-05-01T07:05:05.653Z,68.10
2023-05-01T07:07:32.395Z,68.20
2023-05-01T07:09:59.464Z,68.10
2023-05-01T07:12:26.746Z,67.90
2023-05-01T07:14:53.430Z,68.00
2023-05-01T07:17:20.197Z,68.10
2023-05-01T07:19:46.829Z,68.10
2023-05-01T07:22:13.524Z,68.30
2023-05-01T07:24:40.086Z,68.40
2023-05-01T07:27:07.300Z,68.70
2023-05-01T07:29:36.095Z,68.80
2023-05-01T07:32:02.833Z,69.00
2023-05-01T07:34:29.661Z,69.40
2023-05-01T07:36:56.655Z,69.60
2023-05-01T07:39:23.451Z,69.70
2023-05-01T07:41:50.171Z,70.10
2023-05-01T07:44:16.857Z,70.30
2023-05-01T07:46:43.616Z,70.40
2023-05-01T07:49:10.429Z,70.90
2023-05-01T07:51:37.262Z,71.00
2023-05-01T07:54:04.917Z,71.10
2023-05-01T07:56:31.931Z,71.10
2023-05-01T07:59:01.187Z,71.00
2023-05-01T08:01:27.894Z,71.00
2023-05-01T08:03:54.659Z,70.90
2023-05-01T08:06:21.550Z,70.80
2023-05-01T08:08:48.151Z,70.70
2023-05-01T08:11:14.930Z,70.90
2023-05-01T08:13:41.614Z,70.90
2023-05-01T08:16:08.845Z,70.80
2023-05-01T08:18:35.555Z,70.90
2023-05-01T08:21:02.310Z,71.10
2023-05-01T08:23:29.188Z,71.30
2023-05-01T08:25:56.098Z,71.40
2023-05-01T08:28:23.075Z,71.10
2023-05-01T08:30:50.107Z,71.10
2023-05-01T08:33:16.925Z,71.00
2023-05-01T08:35:43.601Z,70.90
2023-05-01T08:38:11.113Z,70.90
2023-05-01T08:40:38.152Z,71.80
2023-05-01T08:43:05.200Z,70.80
2023-05-01T08:45:35.844Z,70.70
2023-05-01T08:48:06.524Z,70.60
2023-05-01T08:50:34.826Z,70.70
2023-05-01T08:53:02.186Z,70.90
2023-05-01T08:55:30.050Z,71.00
2023-05-01T08:57:57.664Z,71.10
2023-05-01T09:00:24.917Z,71.10
2023-05-01T09:02:51.895Z,71.20
2023-05-01T09:05:19.599Z,71.10
2023-05-01T09:07:46.577Z,71.10
2023-05-01T09:10:15.414Z,71.20
2023-05-01T09:12:44.776Z,71.60
2023-05-01T09:15:12.071Z,71.40
2023-05-01T09:17:40.118Z,71.20
2023-05-01T09:20:07.692Z,70.80
2023-05-01T09:22:34.838Z,70.50
2023-05-01T09:25:02.200Z,69.90
2023-05-01T09:27:29.772Z,69.80
2023-05-01T09:29:56.767Z,69.70
2023-05-01T09:32:25.714Z,69.50
2023-05-01T09:34:53.491Z,68.40
2023-05-01T09:37:28.213Z,68.50
2023-05-01T09:40:04.586Z,68.50
2023-05-01T09:42:35.166Z,68.60
2023-05-01T09:45:10.976Z,68.60
2023-05-01T09:47:37.906Z,68.60
2023-05-01T09:50:05.304Z,68.90
2023-05-01T09:52:33.872Z,68.80
2023-05-01T09:55:14.241Z,68.50
2023-05-01T09:57:42.713Z,68.10
2023-05-01T10:00:11.902Z,68.10
2023-05-01T10:03:13.428Z,68.00
2023-05-01T10:05:44.523Z,67.40
2023-05-01T10:08:14.952Z,67.40
2023-05-01T10:10:43.823Z,67.00
2023-05-01T10:13:15.305Z,66.50
2023-05-01T10:15:42.167Z,66.30
2023-05-01T10:18:10.009Z,65.20
2023-05-01T10:20:36.819Z,64.80
2023-05-01T10:23:03.644Z,65.20
2023-05-01T10:25:31.454Z,65.30
2023-05-01T10:27:58.843Z,65.60
2023-05-01T10:30:26.214Z,65.60
2023-05-01T10:32:53.137Z,65.10
2023-05-01T10:35:21.815Z,64.40
2023-05-01T10:37:50.234Z,63.90
2023-05-01T10:40:35.838Z,63.40
2023-05-01T10:43:19.417Z,63.60
2023-05-01T10:45:47.199Z,63.80
2023-05-01T10:48:32.952Z,62.90
2023-05-01T10:51:11.301Z,62.00
2023-05-01T10:53:38.932Z,62.10
2023-05-01T10:56:06.253Z,62.00
2023-05-01T10:58:39.534Z,61.00
2023-05-01T11:01:25.498Z,61.00
2023-05-01T11:03:52.658Z,60.40
2023-05-01T11:06:19.452Z,60.30
2023-05-01T11:08:47.339Z,60.00
2023-05-01T11:11:37.897Z,59.90
2023-05-01T11:14:05.699Z,59.80
2023-05-01T11:16:42.398Z,59.90
2023-05-01T11:19:10.759Z,60.50
2023-05-01T11:21:39.115Z,60.60
2023-05-01T11:24:06.876Z,60.60
2023-05-01T11:26:37.190Z,60.00
2023-05-01T11:29:04.963Z,61.10
2023-05-01T11:31:32.318Z,61.90
2023-05-01T11:34:00.085Z,62.50
2023-05-01T11:36:27.256Z,62.60
2023-05-01T11:38:56.843Z,62.70
2023-05-01T11:41:24.506Z,62.80
2023-05-01T11:43:51.844Z,62.80
2023-05-01T11:46:31.780Z,62.50
2023-05-01T11:48:59.556Z,62.50
2023-05-01T11:51:26.671Z,62.60
2023-05-01T11:54:00.414Z,62.60
2023-05-01T11:56:27.708Z,62.70
2023-05-01T11:58:56.053Z,62.40
2023-05-01T12:01:33.668Z,60.60
2023-05-01T12:04:00.527Z,60.30
2023-05-01T12:06:41.066Z,60.40
2023-05-01T12:09:08.857Z,59.30
2023-05-01T12:11:36.122Z,59.50
2023-05-01T12:14:04.203Z,59.90
2023-05-01T12:16:31.107Z,60.10
2023-05-01T12:18:58.148Z,60.10
2023-05-01T12:21:26.517Z,60.10
2023-05-01T12:23:54.622Z,60.30
2023-05-01T12:26:28.319Z,60.40
2023-05-01T12:28:58.473Z,60.60
2023-05-01T12:31:26.074Z,60.90
2023-05-01T12:33:53.655Z,61.10
2023-05-01T12:36:25.140Z,61.30
2023-05-01T12:39:02.880Z,61.40
2023-05-01T12:41:42.932Z,61.50
2023-05-01T12:44:15.747Z,61.70
2023-05-01T12:46:44.402Z,61.80
2023-05-01T12:49:18.700Z,62.00
2023-05-01T12:51:46.689Z,62.00
2023-05-01T12:54:17.925Z,62.00
2023-05-01T12:56:47.888Z,62.20
2023-05-01T12:59:22.497Z,62.40
2023-05-01T13:01:57.853Z,62.70
2023-05-01T13:04:25.657Z,62.90
2023-05-01T13:06:56.074Z,63.00
2023-05-01T13:09:23.575Z,63.90
2023-05-01T13:11:57.506Z,63.20
2023-05-01T13:14:24.615Z,63.20
2023-05-01T13:16:52.154Z,63.30
2023-05-01T13:19:28.461Z,63.30
2023-05-01T13:21:55.977Z,63.10
2023-05-01T13:24:23.317Z,63.00
2023-05-01T13:26:59.401Z,63.10
2023-05-01T13:29:26.911Z,63.10
2023-05-01T13:31:53.875Z,63.40
2023-05-01T13:34:27.537Z,63.40
2023-05-01T13:36:58.376Z,62.30
2023-05-01T13:39:25.378Z,61.90
2023-05-01T13:41:52.435Z,62.10
2023-05-01T13:44:19.741Z,62.20
2023-05-01T13:46:46.592Z,62.00
2023-05-01T13:49:20.617Z,61.50
2023-05-01T13:51:48.728Z,60.90
2023-05-01T13:54:16.590Z,59.90
2023-05-01T13:56:43.398Z,59.90
2023-05-01T13:59:10.665Z,58.60
2023-05-01T14:01:42.964Z,58.10
2023-05-01T14:04:11.440Z,56.50
2023-05-01T14:06:42.489Z,55.90
2023-05-01T14:09:09.780Z,55.30
2023-05-01T14:11:44.845Z,54.80
2023-05-01T14:14:11.804Z,55.30
2023-05-01T14:16:40.603Z,55.60
2023-05-01T14:19:08.990Z,55.80
2023-05-01T14:21:39.980Z,56.00
2023-05-01T14:24:07.642Z,56.10
2023-05-01T14:26:36.614Z,56.30
2023-05-01T14:29:04.163Z,56.50
2023-05-01T14:31:31.155Z,56.60
2023-05-01T14:33:58.900Z,56.90
2023-05-01T14:36:26.647Z,57.00
2023-05-01T14:38:55.772Z,57.20
2023-05-01T14:41:22.509Z,57.50
2023-05-01T14:43:53.047Z,57.50
2023-05-01T14:46:27.583Z,57.60
2023-05-01T14:48:54.757Z,57.80
2023-05-01T14:51:21.399Z,57.90
2023-05-01T14:53:48.251Z,57.80
2023-05-01T14:56:15.834Z,57.80
2023-05-01T14:58:42.896Z,57.80
2023-05-01T15:01:09.593Z,57.40
2023-05-01T15:03:40.928Z,57.50
2023-05-01T15:06:08.994Z,57.10
2023-05-01T15:08:36.606Z,57.30
2023-05-01T15:11:06.197Z,57.70
2023-05-01T15:13:32.931Z,58.00
2023-05-01T15:16:00.753Z,58.20
2023-05-01T15:18:27.490Z,58.30
2023-05-01T15:20:55.838Z,58.30
2023-05-01T15:23:23.907Z,58.20
2023-05-01T15:25:50.739Z,58.20
2023-05-01T15:28:17.655Z,58.20
2023-05-01T15:30:45.755Z,58.20
2023-05-01T15:33:13.998Z,58.20
2023-05-01T15:35:41.530Z,58.10
2023-05-01T15:38:08.454Z,57.90
2023-05-01T15:40:35.235Z,57.70
2023-05-01T15:43:04.011Z,57.80
2023-05-01T15:45:31.056Z,57.90
2023-05-01T15:47:57.868Z,57.80
2023-05-01T15:50:24.748Z,58.50
2023-05-01T15:52:52.106Z,57.80
2023-05-01T15:55:19.304Z,57.80
2023-05-01T15:57:47.284Z,57.80
2023-05-01T16:00:14.687Z,57.90
2023-05-01T16:02:42.661Z,58.00
2023-05-01T16:05:09.875Z,57.90
2023-05-01T16:07:36.666Z,58.00
2023-05-01T16:10:04.134Z,57.90
2023-05-01T16:12:31.040Z,58.00
2023-05-01T16:14:57.976Z,57.90
2023-05-01T16:17:24.779Z,57.80
2023-05-01T16:19:52.726Z,57.80
2023-05-01T16:22:21.167Z,57.70
2023-05-01T16:24:48.387Z,57.70
2023-05-01T16:27:17.792Z,57.70
2023-05-01T16:29:45.011Z,57.70
2023-05-01T16:32:11.906Z,57.70
2023-05-01T16:34:40.871Z,57.70
2023-05-01T16:37:07.622Z,57.70
2023-05-01T16:39:35.947Z,57.70
2023-05-01T16:42:03.128Z,57.70
2023-05-01T16:44:30.366Z,57.70
2023-05-01T16:46:58.539Z,57.50
2023-05-01T16:49:27.460Z,57.70
2023-05-01T16:51:57.150Z,57.80
2023-05-01T16:54:35.453Z,58.30
2023-05-01T16:57:03.375Z,58.60
2023-05-01T16:59:30.269Z,58.50
2023-05-01T17:01:57.136Z,58.40
2023-05-01T17:04:24.892Z,58.40
2023-05-01T17:06:56.025Z,58.30
2023-05-01T17:09:22.956Z,58.20
2023-05-01T17:11:56.693Z,58.00
2023-05-01T17:14:23.591Z,57.90
2023-05-01T17:16:51.047Z,57.90
2023-05-01T17:19:17.943Z,57.80
2023-05-01T17:21:44.664Z,58.50
2023-05-01T17:24:13.038Z,57.90
2023-05-01T17:26:39.845Z,57.80
2023-05-01T17:29:06.748Z,58.40
2023-05-01T17:31:33.514Z,57.70
2023-05-01T17:34:00.927Z,57.80
2023-05-01T17:36:31.207Z,58.10
2023-05-01T17:38:59.987Z,58.50
2023-05-01T17:41:27.073Z,59.30
2023-05-01T17:43:55.117Z,59.60
2023-05-01T17:46:24.577Z,59.50
2023-05-01T17:48:51.365Z,60.60
2023-05-01T17:51:18.086Z,62.30
2023-05-01T17:53:45.298Z,65.50
2023-05-01T17:56:12.265Z,67.60
2023-05-01T17:58:39.254Z,68.80
2023-05-01T18:01:06.334Z,69.60
2023-05-01T18:03:33.706Z,70.10
2023-05-01T18:06:01.626Z,69.30
2023-05-01T18:08:28.406Z,68.70
2023-05-01T18:10:55.273Z,68.20
2023-05-01T18:13:28.454Z,68.00
2023-05-01T18:15:55.974Z,67.50
2023-05-01T18:18:23.463Z,66.90
2023-05-01T18:20:50.260Z,66.40
2023-05-01T18:23:18.603Z,66.50
2023-05-01T18:25:46.478Z,67.40
2023-05-01T18:28:16.160Z,66.60
2023-05-01T18:30:43.086Z,66.30
2023-05-01T18:33:10.106Z,66.00
2023-05-01T18:35:39.052Z,65.70
2023-05-01T18:38:05.964Z,65.70
2023-05-01T18:40:33.123Z,66.50
2023-05-01T18:42:59.853Z,67.00
2023-05-01T18:45:26.706Z,67.30
2023-05-01T18:47:53.543Z,67.40
2023-05-01T18:50:22.013Z,67.40
2023-05-01T18:52:48.908Z,67.80
2023-05-01T18:55:16.202Z,68.30
2023-05-01T18:57:43.864Z,68.80
2023-05-01T19:00:12.984Z,69.50
2023-05-01T19:02:42.705Z,70.10
2023-05-01T19:05:10.274Z,70.60
2023-05-01T19:07:37.140Z,70.50
2023-05-01T19:10:04.084Z,70.30
2023-05-01T19:12:30.813Z,70.20
2023-05-01T19:14:57.550Z,71.00
2023-05-01T19:17:24.287Z,70.10
2023-05-01T19:19:51.038Z,69.90
2023-05-01T19:22:17.756Z,69.80
2023-05-01T19:24:44.415Z,70.80
2023-05-01T19:27:11.609Z,69.80
2023-05-01T19:29:39.620Z,69.60
2023-05-01T19:32:06.739Z,69.30
2023-05-01T19:34:33.414Z,69.20
2023-05-01T19:37:01.943Z,69.00
2023-05-01T19:39:29.131Z,68.70
2023-05-01T19:41:55.809Z,68.40
2023-05-01T19:44:22.606Z,68.10
2023-05-01T19:46:49.301Z,67.90
2023-05-01T19:49:16.387Z,67.60
2023-05-01T19:51:43.156Z,67.40
2023-05-01T19:54:09.991Z,67.30
2023-05-01T19:56:38.424Z,67.20
2023-05-01T19:59:05.210Z,67.00
2023-05-01T20:01:32.094Z,66.80
2023-05-01T20:03:58.870Z,66.70
2023-05-01T20:06:28.520Z,66.60
2023-05-01T20:08:55.289Z,66.50
2023-05-01T20:11:22.166Z,66.30
2023-05-01T20:13:48.863Z,66.20
2023-05-01T20:16:15.699Z,66.10
2023-05-01T20:18:42.580Z,66.00
2023-05-01T20:21:09.468Z,65.90
2023-05-01T20:23:38.555Z,65.70
2023-05-01T20:26:05.374Z,65.60
2023-05-01T20:28:32.270Z,65.50
2023-05-01T20:30:59.244Z,65.40
2023-05-01T20:33:26.434Z,65.30
2023-05-01T20:35:54.001Z,65.40
2023-05-01T20:38:21.752Z,65.40
2023-05-01T20:40:48.672Z,65.50
2023-05-01T20:43:15.824Z,65.40
2023-05-01T20:45:42.730Z,65.40
2023-05-01T20:48:09.725Z,65.30
2023-05-01T20:50:36.936Z,65.30
2023-05-01T20:53:03.927Z,65.30
2023-05-01T20:55:30.776Z,65.20
2023-05-01T20:57:57.794Z,65.00
2023-05-01T21:00:24.937Z,64.90
2023-05-01T21:02:52.815Z,64.90
2023-05-01T21:05:19.784Z,64.80
2023-05-01T21:07:46.694Z,64.80
2023-05-01T21:10:16.354Z,64.70
2023-05-01T21:13:09.236Z,64.70
2023-05-01T21:15:36.516Z,64.80
2023-05-01T21:18:03.578Z,64.80
2023-05-01T21:20:32.000Z,64.70
2023-05-01T21:22:59.426Z,64.70
2023-05-01T21:25:27.527Z,64.60
2023-05-01T21:27:54.386Z,64.60
2023-05-01T21:30:28.770Z,64.60
2023-05-01T21:32:56.198Z,64.60
2023-05-01T21:35:23.202Z,64.60
2023-05-01T21:37:50.413Z,65.50
2023-05-01T21:40:18.202Z,64.60
2023-05-01T21:42:44.980Z,64.50
2023-05-01T21:45:12.875Z,64.40
2023-05-01T21:47:41.031Z,64.50
2023-05-01T21:50:08.543Z,64.50
2023-05-01T21:52:35.704Z,64.50
2023-05-01T21:55:03.772Z,64.50
2023-05-01T21:57:31.889Z,64.40
2023-05-01T22:00:01.638Z,64.40
2023-05-01T22:02:34.862Z,64.40
2023-05-01T22:05:01.680Z,64.50
2023-05-01T22:07:28.446Z,64.40
2023-05-01T22:09:55.310Z,64.30
2023-05-01T22:12:22.003Z,64.40
2023-05-01T22:14:49.117Z,64.30
2023-05-01T22:17:23.747Z,64.30
2023-05-01T22:19:53.624Z,64.40
2023-05-01T22:22:20.385Z,64.40
2023-05-01T22:24:47.159Z,64.40
2023-05-01T22:27:15.884Z,64.40
2023-05-01T22:29:42.798Z,64.70
2023-05-01T22:32:09.692Z,66.10
2023-05-01T22:34:36.562Z,66.10
2023-05-01T22:37:03.280Z,66.80
2023-05-01T22:39:29.929Z,65.90
2023-05-01T22:41:58.143Z,65.90
2023-05-01T22:44:24.993Z,65.80
2023-05-01T22:46:52.130Z,65.80
2023-05-01T22:49:19.019Z,65.70
2023-05-01T22:51:46.129Z,65.70
2023-05-01T22:54:12.898Z,65.70
2023-05-01T22:56:39.993Z,65.50
2023-05-01T22:59:06.872Z,65.40
2023-05-01T23:01:33.619Z,65.40
2023-05-01T23:04:01.125Z,65.40
2023-05-01T23:06:28.182Z,65.30
2023-05-01T23:08:55.108Z,65.30
2023-05-01T23:11:22.254Z,65.40
2023-05-01T23:13:49.968Z,65.40
2023-05-01T23:16:16.910Z,65.50
2023-05-01T23:18:43.873Z,65.50
2023-05-01T23:21:11.198Z,65.60
2023-05-01T23:23:40.190Z,65.60
2023-05-01T23:26:06.849Z,65.60
2023-05-01T23:28:33.525Z,65.60
2023-05-01T23:31:01.648Z,65.50
2023-05-01T23:33:34.292Z,65.50
2023-05-01T23:36:01.473Z,65.50
2023-05-01T23:38:28.150Z,66.40
2023-05-01T23:40:55.067Z,65.50
2023-05-01T23:43:22.266Z,65.60
2023-05-01T23:45:49.284Z,65.50
2023-05-01T23:48:16.087Z,65.60
2023-05-01T23:50:43.079Z,65.60
2023-05-01T23:53:09.881Z,65.60
2023-05-01T23:55:38.295Z,65.70
2023-05-01T23:58:05.071Z,65.60
